EUROPE METAR - 12 Dec 2017 - 2348 UTC - RocketRoute WX - rrwx.com
EGPD 122320Z AUTO 23007KT 9999 -RA NCD 02/01 Q0990 NOSIG EGAA 122320Z 21006KT 9999 SCT049 04/03 Q0998 EGKB   EGHH   EGGD 122320Z AUTO 22012KT 7000 -RA OVC002 07/07 Q1002 RERA REDZ EGFF 122320Z AUTO 26016KT 9999 BKN011 OVC020 09/08 Q1002 EGCN 122320Z 21018KT 9999 FEW010 BKN026 04/03 Q1000 EGNV   EGNX 122320Z 20018KT 9000 RA SCT010 BKN032 03/02 Q1000 EGPH 122320Z 24009KT 9999 BKN031 03/02 Q0993 EGTE 122320Z 24006KT 200V260 8000 RA BKN008 09/08 Q1003 EGLF   EGPF 122320Z AUTO 26011KT 9999 FEW045 05/03 Q0994 EGJB   EGNJ 122320Z AUTO 19019KT 9999 OVC023/// 03/02 Q0999 EGPE 122320Z AUTO 24010KT 9999 NCD 02/00 Q0990 EGJJ 122320Z AUTO 19014KT 9999 FEW015/// BKN020/// OVC025/// 08/07 Q1009 REDZ EGPA 122320Z AUTO 21012KT 9999 FEW026/// BKN038/// 04/03 Q0987 EGNM 122320Z 24012KT 190V270 9999 BKN009 03/02 Q0998 EGGP 122320Z 16006KT 100V200 9999 BKN012 OVC018 04/04 Q1000 EGLC 122320Z AUTO 18005KT 150V220 9999 -RA BKN032 07/04 Q1006 EGKK 122320Z 21006KT 9999 -RA BKN023 BKN029 07/05 Q1006 EGLL 122320Z AUTO 19009KT 170V240 9999 -RA SCT028 SCT033 BKN044TCU 06/04 Q1005 TEMPO 6000 -RA BKN012 EGGW 122320Z AUTO 19009KT 150V210 6000 -RA FEW004/// SCT012/// BKN035/// //////TCU 03/03 Q1004 EGSS 122320Z AUTO 17010KT 9999 -RA BKN025/// OVC030/// //////TCU 03/02 Q1005 EGMD 122320Z AUTO 21016KT 4200 RA FEW012/// SCT018/// BKN023/// 07/06 Q1008 RERA EGCC 122320Z AUTO 19007KT 150V220 7000 BKN004 BKN008 OVC014 03/02 Q1000 REDZ TEMPO 2000 BR BKN001 EGMH   EGNT 122320Z 24014KT 9999 SCT021 05/02 Q0994 EGSH 122320Z AUTO 19011KT 9999 -RA FEW012/// SCT026/// 03/02 Q1004 EGPK 122320Z 27012KT 9999 SCT020 07/04 Q0995 EGKA   EGHI   EGMC 122250Z 19011KT 9999 -RA FEW020 BKN044 06/03 Q1006 EGPC 122320Z AUTO 24004KT 210V280 9999 NCD 03/02 Q0988 LXGB 122250Z AUTO 26006KT 9999 // NCD 11/01 Q1023 EDDB 122320Z 21007KT 9999 BKN015 02/01 Q1013 TEMPO BKN014 EDDW 122320Z 22013KT 9999 BKN010 01/M00 Q1011 R88/290095 EDDC 122320Z 26009KT 220V280 9999 BKN035 BKN052 03/M02 Q1014 EDDL 122320Z 19009KT 9999 FEW035 02/M01 Q1014 NOSIG EDFH 122320Z 24009KT 9999 -SN BKN010 00/M01 Q1014 EDDF 122320Z 19005KT 9999 SCT028 M01/M02 Q1017 NOSIG EDDH 122320Z 22015KT 9000 OVC006 01/01 Q1010 NOSIG EDDV 122320Z 23007KT 9999 SCT017 02/M01 Q1012 EDAH   EDSB 122320Z AUTO 22006KT 9999 // FEW045/// BKN053/// OVC060/// 02/00 Q1018 EDVK 122320Z 17006KT 9999 FEW027 BKN044 01/M01 Q1013 EDDK 122320Z 17007KT 9999 FEW048 00/M02 Q1015 NOSIG ETNL 122320Z 24010KT 7000 BKN007 01/M00 Q1009 GRN EDDP 122320Z 23010KT 9999 FEW039 OVC060 02/M01 Q1014 NOSIG EDHL   EDDM 122320Z 20004KT 190V260 CAVOK 00/M02 Q1018 R88/190095 NOSIG EDDG 122320Z 18005KT 150V210 8000 BKN028 01/M00 Q1012 NOSIG EDDN 122320Z 23006KT 9999 FEW047 SCT076 00/M03 Q1017 EDLP 122320Z 22010KT 9999 SCT040 01/M01 Q1013 EDDR 122320Z AUTO 22009KT 9999 // SCT017/// 00/M01 Q1016 EDDS 122320Z VRB01KT 9999 FEW046 M01/M04 Q1017 EDXW   EDDT 122320Z 24008KT 9999 BKN010 02/01 Q1013 LFLB 122330Z AUTO 00000KT 8000 BKN006 BKN020 01/00 Q1021 LFBZ 122330Z AUTO 19003KT 160V230 9999 BKN050 OVC078 07/04 Q1022 LFLC 122330Z AUTO 16009KT 9999 FEW056 SCT068 01/M02 Q1019 NOSIG LFSB 122330Z AUTO VRB03KT CAVOK M02/M03 Q1019 TEMPO 4000 BR LFBL 122330Z AUTO 16007KT 9999 OVC005 02/02 Q1019 LFBI 122330Z AUTO 18009KT CAVOK 04/03 Q1017 LFBO 122330Z AUTO 18004KT CAVOK 00/M01 Q1022 LFRB 122330Z AUTO 22020KT 9000 OVC004 10/10 Q1009 TEMPO 24015G25KT 3000 -RA LFLY 122330Z AUTO VRB01KT CAVOK M01/M02 Q1021 TEMPO 0800 FZFG VV/// LFRK 122330Z AUTO 19012KT 9999 FEW046 OVC100 06/03 Q1011 LFMN 122330Z 24005KT 210V270 CAVOK 07/03 Q1014 NOSIG LFST 122330Z AUTO 19006KT 160V220 9999 FEW060 SCT074 01/M01 Q1018 NOSIG LFTW 122330Z AUTO 30006KT CAVOK 01/M01 Q1020 LFRH 122330Z AUTO 22015KT 9999 OVC007 10/09 Q1011 TEMPO 22020G32KT BECMG 4000 RA LFPB 122330Z AUTO 20010KT CAVOK 05/02 Q1015 NOSIG LFQQ 122330Z AUTO 17011KT CAVOK 02/01 Q1012 BECMG BKN012 LFAT 122330Z AUTO 16007KT CAVOK 04/02 Q1010 LFMT 122330Z AUTO 32006KT CAVOK 04/M01 Q1021 NOSIG LFBD 122330Z AUTO 19005KT 9999 FEW041 BKN056 05/04 Q1020 LFRS 122330Z AUTO 18006KT 9999 SCT032 BKN045 BKN060 06/05 Q1015 BECMG BKN010 OVC030 LFKJ 122330Z AUTO 07003KT 9999 FEW029 SCT040 BKN050 09/08 Q1018 NOSIG LFPG 122330Z 20010KT CAVOK 03/02 Q1014 LFPO 122330Z 20007KT 9999 FEW010 BKN130 03/01 Q1015 LFRD 122330Z AUTO 18012KT CAVOK 07/05 Q1010 TEMPO 3000 RA BKN005 BECMG 19015G25KT LFKB 122330Z AUTO 25007KT 220V290 CAVOK 11/05 Q1016 NOSIG LFML 122330Z AUTO 30010KT CAVOK 05/M01 Q1019 NOSIG LFMP 122330Z AUTO 26005KT 230V300 CAVOK 03/M01 Q1022 LFLL 122330Z 14005KT 5000 BR NSC M00/M02 Q1020 NOSIG LFRN 122330Z AUTO 18012KT CAVOK 07/05 Q1012 BECMG RA BKN010 LFOB 122330Z AUTO 19008KT CAVOK 04/02 Q1013 BECMG BKN012 LFPN 122330Z AUTO 20011KT 9999 SCT008 OVC120 03/02 Q1014 LFOT 122330Z AUTO 18007KT CAVOK 03/02 Q1016 TEMPO BKN008 EBBR 122320Z 19009KT CAVOK 01/M01 Q1012 NOSIG EBCI 122320Z 20009KT 9999 FEW030 01/M00 Q1013 NOSIG EBAW 122320Z AUTO 19009KT CAVOK 02/M00 Q1012 EBLG 122320Z 18011KT 9999 FEW028 01/M01 Q1013 NOSIG EBOS 122320Z 18010KT CAVOK 02/M00 Q1010 NOSIG EHEH 122325Z AUTO 18007KT 9999 OVC150 01/M01 Q1012 BLU EHGG 122325Z AUTO 20013KT 3600 BR BKN004 OVC005 01/01 Q1009 EHBK 122325Z AUTO 20014KT 9999 SCT024 01/M00 Q1014 EHRD 122325Z AUTO 19012KT 160V220 9999 NSC 02/00 Q1010 R24/1///95 NOSIG EHAM 122325Z 18015KT CAVOK 01/M01 Q1010 NOSIG ELLX 122320Z 21008KT 9999 SCT007 BKN009 01/00 Q1015 NOSIG LOWG 122320Z AUTO 02006KT 350V060 9999 -RA FEW007 SCT018 BKN024 03/01 Q1017 LOWI 122320Z AUTO VRB02KT 5000 -RASN BR SCT006 BKN013 00/00 Q1018 LOWK 122320Z AUTO 05010KT 030V100 9999 -RA FEW028 BKN032 06/M01 Q1014 LOWL 122320Z AUTO 24005KT 9999 FEW024 BKN130 01/M01 Q1018 LOWS 122320Z AUTO 16004KT 130V200 9999 FEW042 SCT046 BKN060 00/M00 Q1019 LOWW 122320Z 29008KT 9999 FEW032 BKN045 04/M00 Q1018 NOSIG LOAN   LOXZ   LSMA 122250Z AUTO 26003KT 230V300 3900NDV BKN006 BKN017 00/M01 Q1019 RMK LFSB 122330Z AUTO VRB03KT CAVOK M02/M03 Q1019 TEMPO 4000 BR LSZB 122320Z AUTO 12003KT CAVOK M03/M04 Q1019 LSZC 122320Z AUTO 20004KT CAVOK M01/M02 Q1019 LSMD 122250Z AUTO VRB01KT 9999NDV NCD M01/M02 Q1019 RMK LSME 122250Z AUTO 26003KT 9999NDV FEW053 M01/M02 Q1019 RMK LSZR 122320Z AUTO VRB02KT 9999 NCD 00/M03 Q1019 LSGG 122320Z AUTO 24003KT 9000 R05/0375D R23/P2000N FZFG NCD M03/M03 Q1020 REFZDZ BECMG CAVOK LSZG 122320Z AUTO 24002KT CAVOK M03/M03 Q1019 LSGC 122320Z AUTO 28001KT CAVOK M07/M08 Q1017 LSZL 122250Z AUTO VRB02KT 0450NDV R08/0375V0600U R26/0500V0700N FZFG NCD M02/M02 Q1016 RMK LSZA 122320Z AUTO VRB03KT 0150 FZFG VV001 00/00 Q1015 LSMM 122250Z AUTO 10003KT 5000NDV BR FEW004 SCT027 BKN053 M01/M01 Q1019 RMK LSMP 122250Z AUTO VRB01KT 9000NDV NCD M01/M02 Q1019 RMK LSZS 122320Z AUTO VRB01KT 9999 NCD M08/M09 Q1012 LSGS 122320Z AUTO 07002KT 9999 OVC026 00/M02 Q1020 LSZH 122320Z 00000KT 7000 MIFG NSC M02/M03 Q1019 R88/29//// NOSIG LEAL 122330Z 30010KT CAVOK 08/M01 Q1023 NOSIG LEAM 122330Z AUTO 33011KT 9999 NCD 09/01 Q1024 LEAS 122330Z 22013KT 9999 BKN038 11/05 Q1019 NOSIG LEBZ   LEBL 122330Z 33012KT 9999 FEW030 FEW042TCU 05/01 Q1022 NOSIG LEBB 122330Z AUTO 00000KT 9999 NCD 04/03 Q1022 LEGR 122330Z AUTO VRB01KT 9999 NCD M00/M02 Q1025 LEIB 122300Z VRB01KT CAVOK 06/02 Q1022 NOSIG LEJR 122330Z AUTO 02009KT 9999 NCD 06/03 Q1025 LELN   LEMD 122330Z 33003KT CAVOK M00/M02 Q1024 NOSIG LEMG 122330Z 30008KT 270V330 CAVOK 09/M01 Q1024 NOSIG LEMH 122330Z 01008KT 9999 FEW025 07/05 Q1021 LELC   LEPA 122330Z 06004KT 9999 FEW023 06/05 Q1022 NOSIG LERS 122330Z AUTO VRB01KT 9999 NCD 00/M01 Q1022 LEXJ 122330Z AUTO 21010KT 7000 BKN078 09/03 Q1021 LEST 122330Z 21011KT 170V260 4000 -RADZ BR OVC004 08/07 Q1022 NOSIG LEZL 122330Z 03005KT CAVOK 08/04 Q1025 NOSIG LEVC 122330Z 29003KT CAVOK 04/M03 Q1024 NOSIG LEVD   LEVT 122330Z 00000KT 9999 FEW065 M01/M01 Q1022 LEZG 122330Z 22005KT CAVOK 03/M00 Q1023 GCLP 122330Z 01016KT 330V030 9999 FEW040 SCT050 BKN070 18/10 Q1021 NOSIG GCRR 122330Z 02017KT 9999 FEW049 16/10 Q1020 GCXO 122330Z AUTO 35013KT 320V030 9999 SCT013/// BKN022/// BKN029/// 12/10 Q1024 GCTS 122330Z 03019G29KT 9999 SCT050 18/09 Q1021 WS R07 NOSIG LPFR 122330Z 36004KT 330V040 CAVOK 11/03 Q1025 LPPT 122330Z 30006KT CAVOK 11/07 Q1026 LPMA 122330Z 01017G31KT 9999 SCT016 17/10 Q1027 LPPD 122330Z 33004KT 290V050 9999 BKN018 17/14 Q1033 LPPR 122330Z 13008KT 9000 FEW025 BKN040 09/07 Q1025 LPPS 122330Z 05010KT 9999 SCT013 FEW016TCU 17/09 Q1028 LPAZ   LPST   LIEA 122320Z 13004KT 9999 -DZ FEW025 11/11 Q1018 LIBD 122320Z 22006KT CAVOK 11/07 Q1018 LIME 122320Z 20004KT 160V220 2000 BR SCT070 02/02 Q1014 NOSIG LIPE 122320Z 27007KT 8000 NSC 04/02 Q1015 LIRN 122320Z 19010KT 170V230 9999 FEW025 16/10 Q1018 NOSIG LICC 122320Z 22007KT CAVOK 08/05 Q1021 LIRA 122250Z 28005KT 250V330 9999 RA SCT015 BKN030 12/11 Q1016 LIBC   LIEE 122320Z 34004KT 300V360 CAVOK 13/11 Q1019 LIPY 122250Z 28003KT 9999 -RA SCT010 BKN040 09/09 Q1016 LIRF 122320Z VRB03KT 5000 RA FEW010 SCT020 BKN030 13/12 Q1017 NOSIG LIMJ 122320Z 03006KT 9999 FEW045 10/08 Q1014 LICD   LIML 122320Z 24006KT 200V270 0500 R36/P2000VP2000U FG OVC002 02/02 Q1015 NOSIG LIMC 122320Z VRB02KT 9999 R35R/P1500N R17L/0700VP1500D R35L/0650VP1500D BCFG NSC 00/00 Q1014 NOSIG LIEO 122320Z 26007KT 9999 FEW040 11/09 Q1017 LICJ 122320Z 19020G30KT CAVOK 19/01 Q1018 LIBP 122257Z AUTO 36008KT 330V040 9999 -RA BKN006/// OVC066/// 12/10 Q1016 LIRP 122315Z 12003KT 9999 RA SCT020 SCT035 09/09 Q1015 NOSIG LICR 122250Z 13010KT CAVOK 16/08 Q1021 LIMF 122320Z 24003KT 190V270 9999 MIFG NSC M00/M01 Q1015 LIRU   LIPZ 122320Z 31004KT 9000 NSC 06/06 Q1014 NOSIG EETN 122320Z 27013KT 9999 -RA BKN010 OVC018 02/00 Q0987 R08/290295 EETU 122250Z AUTO 21011KT 170V250 9999 -DZ BKN014/// OVC020/// 05/02 Q0990 RERA EVRA 122320Z 21017G30KT 9999 -RA BKN018 OVC025 04/02 Q0993 R18/290195 NOSIG EVLA 122320Z AUTO 28012KT 9999 -RA BKN010/// OVC017/// 03/02 Q0997 EYKA 122320Z AUTO 23015G25KT 9999 OVC040/// 05/M03 Q1003 EYSA 122320Z AUTO 22023KT 9999NDV BKN019 BKN024 03/00 Q0998 R14L/29//95 R14R/29//95 EYPA 122320Z 28010G21KT 230V320 9999 -RA BKN013 BKN055 03/02 Q0999 R19/2///95 EYVI 122320Z 23018KT 9999 OVC035 04/M02 Q1004 R19/2///95 NOSIG UMKK 122300Z 24009G14MPS 9999 -SHRA SCT005 BKN015CB 03/02 Q1002 R24/29//57 NOSIG RMK QBB150 OBST OBSC QFE751/1001 EKYT 122333Z AUTO 23018KT 9999NDV DZ FEW034/// SCT060/// 03/02 Q0999 R26L/190195 EKAH 122320Z AUTO 21006KT 170V270 9999NDV FEW011/// SCT037/// 02/01 Q1002 R10R/09//95 EKBI 122320Z AUTO 24013KT 9999NDV SCT032/// BKN055/// 03/00 Q1003 R09/71//95 EKRN 122320Z AUTO 25018KT 9999NDV SCT020/// BKN063/// 04/00 Q1007 EKEB 122320Z AUTO 21010KT 9999NDV FEW032/// SCT043/// 04/01 Q1003 EKKA 122320Z AUTO 21009KT 9999NDV SCT050/// 02/02 Q1001 R27L/790294 EKCH 122320Z 23013KT CAVOK 03/01 Q1005 R04L/320157 R04R/320163 R12/320157 NOSIG EKOD   EKRK 122320Z AUTO 22012KT 9999NDV FEW070/// 01/M00 Q1004 R99/720192 EKSP 122331Z 23013KT 200V260 9999 -SHRA FEW010 SCT020CB SCT027 02/01 Q1005 EKVD 122320Z AUTO 22014KT //// ///////// 02/01 Q1004 ESTA 122320Z AUTO 23012KT 9999 BKN036/// OVC046/// 02/// Q1002 REUP ESNZ   ESGP   ESGG 122320Z 19007KT 4700 -SN BKN002 BKN004 OVC006 M01/M02 Q0998 R21/19//95 ESMT 122320Z AUTO 25017KT 9999 FEW020/// OVC064/// 03/01 Q1001 ESMQ 122320Z AUTO 26008KT 9999 NCD M02/M03 Q1002 ESNQ 122320Z AUTO 36007KT 3200 -SN VV017 M07/M08 Q0985 ESPA 122320Z AUTO 33012KT 2500 -UP VV017 M04/M05 Q0981 ESMS 122320Z 23009KT CAVOK 02/M00 Q1005 R17/290295 ESSL 122320Z AUTO 26010KT 9999 OVC015/// M02/M03 Q0998 ESSA 122320Z 26006KT CAVOK M05/M06 Q0994 R01L/520175 R01R/520178 R08/520172 NOSIG ESSB 122320Z AUTO 26008KT 9999 FEW009/// SCT012/// M03/M04 Q0995 ESKN 122320Z 27009KT CAVOK M06/M07 Q0997 R26/520139 ESNU 122320Z 30012KT CAVOK M03/M05 Q0984 R14/75//39 ESSV 122320Z AUTO 28017KT 9999 SCT017/// OVC022/// 01/M03 Q0998 ENAN 122320Z AUTO 20006KT 9999 NCD M06/M09 Q0989 ENAT 122250Z AUTO 15006KT 9999 OVC021/// M02/M07 Q0992 RMK WIND 700FT 17009KT ENHF 122320Z 03004KT 340V120 CAVOK M04/M08 Q0990 RMK WIND 1254FT 18008KT ENDU 122320Z AUTO 00000KT 9999 NCD M19/M21 Q0990 RMK WIND 1100FT 14002KT WIND 2200FT 09008KT ENBO 122250Z 07012KT CAVOK M03/M06 Q0989 NOSIG ENEV 122250Z 36003KT CAVOK M13/M15 Q0990 RMK WIND 1400FT 10007KT ENBR 122250Z 13008KT 9999 SCT018 BKN035 01/M03 Q0994 RMK WIND 1200FT 13017KT ENFL 122320Z AUTO 09015KT 9999NDV -SHRA FEW012/// OVC025/// 01/M03 Q0992 ENGM 122320Z 17001KT CAVOK M13/M15 Q0995 ENHD 122320Z AUTO 12014KT 9999 FEW047/// SCT160/// 02/00 Q0994 ENCN 122320Z AUTO 06004KT 9999 FEW009/// OVC028/// M04/M04 Q0997 ENTC 122250Z 11003KT CAVOK M08/M10 Q0991 RMK WIND 2600FT 18003KT ENFB 122320Z AUTO 19023KT 9999NDV FEW027/// SCT038/// BKN048/// 06/00 Q0989 W///S4 ENSB 122250Z 10010KT 9999 BKN035 M03/M09 Q0995 RMK WIND 1400FT 10015KT ENNK   ENRO 122320Z AUTO VRB02KT 9999NDV FEW070/// M18/M20 Q0989 ENRY 122320Z AUTO 02003KT 9999NDV NCD M11/M12 Q0997 ENZV 122250Z 12009KT 9999 FEW030 SCT160 00/M02 Q0995 ENVA 122320Z 09006KT 0700 -SN SCT002 BKN006 M05/M06 Q0989 RMK WIND 670FT 21010KT ENAL 122320Z AUTO 19009KT 9999 SCT039/// BKN046/// BKN070/// 04/M02 Q0990 EFET 122320Z AUTO 36010KT 5000 -SG OVC031 M07/M08 Q0986 EFTP 122320Z AUTO 26011KT 9999 FEW007 BKN009 BKN011 M03/M04 Q0984 EFTU 122320Z AUTO 29009KT 9999 -SN SCT007/// OVC026/// M01/M01 Q0987 BIAR 122300Z 29005KT 8000 -RA BKN019 OVC025 03/00 Q0977 R01/790050 RMK RWY SANDED BIEG 122300Z VRB03KT 9999 -RA FEW020 SCT030 BKN055 04/00 Q0977 R04/790195 BIKF 122330Z 11006KT 9999 FEW029 BKN140 01/M00 Q0974 R19/190045 BIRK 122300Z 09007KT 9999 FEW032 SCT052 01/M01 Q0975 R19/790140 BGJN 122250Z 10011KT 9999 SCT150 M04/M12 Q0988 BGSF 122250Z AUTO 07003KT 2800NDV -SN SCT016/// BKN025/// OVC037/// M05/M06 Q0990 BGKK 122250Z AUTO 07014KT 020V100 9999NDV FEW064/// SCT190/// 02/M08 Q0981 BGBW 122250Z AUTO 06003KT 9999NDV FEW085/// BKN100/// M03/M06 Q0991 BGGH 122250Z AUTO 29009KT 6000NDV -FZRA BKN021/// M04/M06 Q0995 BGTL 122258Z AUTO 09009KT 9999 CLR M17/M19 A2912 RMK AO2 SLP851 T11681192 BGSS   EIDW 122330Z 25014KT 9999 FEW022 SCT060 BKN180 05/04 Q1000 NOSIG EINN 122330Z 24009KT 9999 FEW016 SCT022 07/05 Q1003 NOSIG EICK 122330Z 25007KT 9999 FEW021 BKN120 06/04 Q1004 NOSIG EIKN   EPGD 122330Z 25014KT 9999 FEW025 01/M02 Q1005 EPKK 122330Z 25012KT CAVOK 04/M02 Q1014 EPKT 122330Z 24008KT CAVOK 03/M03 Q1014 EPMO 122330Z 24015KT CAVOK 04/M02 Q1010 EPPO 122330Z 27011KT 9999 OVC008 01/M00 Q1012 R10/290095 EPWA 122330Z 24008KT 210V270 CAVOK 05/M03 Q1011 NOSIG LGAV 122320Z VRB02KT 9999 FEW030 10/07 Q1022 NOSIG LGIR 122320Z 17006KT CAVOK 11/09 Q1023 NOSIG LGKO 122320Z 31006KT 9999 FEW015 14/11 Q1022 LGMK   LGRP 122320Z 27012KT 9999 FEW015 15/14 Q1020 NOSIG LGSA 122250Z 27004KT 9999 FEW020 11/09 Q1023 LGSR 122320Z AUTO 24015KT //// -RA ////// 16/12 Q1022 RE// LGTS 122320Z 11004KT 8000 FEW010 05/03 Q1020 NOSIG LTAI 122320Z 35007KT CAVOK 07/05 Q1019 NOSIG RMK RWY18C 35005KT RWY36R 33005KT RWY18L 34004KT LTBA 122320Z 22007KT 170V280 CAVOK 14/10 Q1020 NOSIG RMK RWY17L 22007KT 190V250 RWY05 20006KT RWY23 22007KT LTBJ 122320Z 00000KT CAVOK 06/05 Q1022 NOSIG RMK RWY16 VRB02KT LTBS 122320Z 02007KT CAVOK 11/07 Q1020 NOSIG RMK RWY19 32005KT 290V350 LMML 122315Z 18005KT CAVOK 15/10 Q1022 NOSIG LLBG 122320Z 15004KT CAVOK 15/03 Q1018 NOSIG RMK OBS 1300FT-TEMP 25C LLSD   GMAD 122330Z 07006KT CAVOK 11/05 Q1015 NOSIG GMMN 122330Z 09002KT CAVOK 08/06 Q1023 NOSIG GMMX 122330Z 05005KT CAVOK 07/02 Q1020 NOSIG HECA 122330Z 32004KT 2000 BR NSC 17/16 Q1021 NOSIG HEGN 122300Z 31005KT CAVOK 16/04 Q1018 NOSIG HELX 122300Z 00000KT CAVOK 15/04 Q1018 NOSIG HESH 122300Z 33004KT CAVOK 18/M06 Q1017 NOSIG LBSF 122330Z 11003KT 080V140 2600 BR NSC M01/M01 Q1019 NOSIG LCLK 122330Z 31008KT CAVOK 13/09 Q1018 NOSIG LDZA 122330Z VRB03KT 9999 -RA FEW020 08/07 Q1015 TEMPO RA LHBP 122330Z 29014KT 9999 -RA OVC032 04/03 Q1015 NOSIG LJLJ 122330Z VRB02KT 8000 BKN033 OVC100 05/05 Q1014 NOSIG LKPR 122330Z 23006KT CAVOK 01/M03 Q1015 NOSIG LROP 122330Z 25008KT 8000 NSC 05/03 Q1015 NOSIG LYBE 122330Z 17008KT CAVOK 13/05 Q1014 NOSIG LZIB 122330Z 31004KT 9999 FEW030 BKN082 04/M01 Q1018 UKBB 122330Z 20004MPS CAVOK 01/00 Q1012 R18L/190060 NOSIG ULLI 122330Z 17006G11MPS 140V210 9999 -SHRA BKN009 BKN015CB OVC039 03/02 Q0990 R10R/650345 NOSIG RMK ULMM 122330Z 04001MPS 3800 -SHSN BKN018CB M03/M04 Q0990 R31/490533 NOSIG RMK QFE735 UMKK 122300Z 24009G14MPS 9999 -SHRA SCT005 BKN015CB 03/02 Q1002 R24/29//57 NOSIG RMK QBB150 OBST OBSC QFE751/1001 UUEE 122330Z 16005MPS 5000 BR OVC003 02/02 Q1007 R06R/290151 NOSIG UUWW 122330Z 15003MPS 0800 0750W R24/1800U FG VV001 02/01 Q1008 R24/520245 TEMPO 0500 FG RMK QBB040
RocketRoute WX - rrwx.com weather for pilots